sensor_id;sensor_type;location;lat;lon;timestamp;P1;durP1;ratioP1;P2;durP2;ratioP2
50429;SDS011;36359;41.556;-8.418;2022-10-31T00:01:00;6.65;;;3.63;;
50429;SDS011;36359;41.556;-8.418;2022-10-31T00:03:26;6.40;;;3.63;;
50429;SDS011;36359;41.556;-8.418;2022-10-31T00:05:52;9.35;;;3.50;;
50429;SDS011;36359;41.556;-8.418;2022-10-31T00:08:18;9.20;;;2.83;;
50429;SDS011;36359;41.556;-8.418;2022-10-31T00:10:44;5.22;;;2.60;;
50429;SDS011;36359;41.556;-8.418;2022-10-31T00:13:11;6.65;;;3.35;;
50429;SDS011;36359;41.556;-8.418;2022-10-31T00:15:39;10.10;;;3.50;;
50429;SDS011;36359;41.556;-8.418;2022-10-31T00:18:06;8.63;;;4.72;;
50429;SDS011;36359;41.556;-8.418;2022-10-31T00:20:32;6.68;;;4.22;;
50429;SDS011;36359;41.556;-8.418;2022-10-31T00:23:02;10.80;;;5.10;;
50429;SDS011;36359;41.556;-8.418;2022-10-31T00:25:29;8.75;;;4.72;;
50429;SDS011;36359;41.556;-8.418;2022-10-31T00:27:58;7.57;;;4.95;;
50429;SDS011;36359;41.556;-8.418;2022-10-31T00:30:23;10.25;;;5.22;;
50429;SDS011;36359;41.556;-8.418;2022-10-31T00:32:49;8.93;;;4.60;;
50429;SDS011;36359;41.556;-8.418;2022-10-31T00:35:16;9.25;;;3.78;;
50429;SDS011;36359;41.556;-8.418;2022-10-31T00:37:44;12.18;;;5.45;;
50429;SDS011;36359;41.556;-8.418;2022-10-31T00:40:09;11.02;;;5.40;;
50429;SDS011;36359;41.556;-8.418;2022-10-31T00:42:36;11.95;;;6.05;;
50429;SDS011;36359;41.556;-8.418;2022-10-31T00:45:02;13.48;;;6.20;;
50429;SDS011;36359;41.556;-8.418;2022-10-31T00:47:28;13.07;;;5.45;;
50429;SDS011;36359;41.556;-8.418;2022-10-31T00:49:53;9.68;;;6.03;;
50429;SDS011;36359;41.556;-8.418;2022-10-31T00:52:19;11.00;;;5.72;;
50429;SDS011;36359;41.556;-8.418;2022-10-31T00:54:45;11.25;;;5.95;;
50429;SDS011;36359;41.556;-8.418;2022-10-31T00:57:11;13.20;;;6.45;;
50429;SDS011;36359;41.556;-8.418;2022-10-31T00:59:37;11.60;;;7.35;;
50429;SDS011;36359;41.556;-8.418;2022-10-31T01:02:03;17.30;;;7.88;;
50429;SDS011;36359;41.556;-8.418;2022-10-31T01:04:29;11.93;;;6.60;;
50429;SDS011;36359;41.556;-8.418;2022-10-31T01:06:56;8.75;;;4.30;;
50429;SDS011;36359;41.556;-8.418;2022-10-31T01:09:22;8.25;;;4.82;;
50429;SDS011;36359;41.556;-8.418;2022-10-31T01:11:48;5.82;;;3.92;;
50429;SDS011;36359;41.556;-8.418;2022-10-31T01:14:14;8.23;;;4.05;;
50429;SDS011;36359;41.556;-8.418;2022-10-31T01:16:39;7.18;;;3.60;;
50429;SDS011;36359;41.556;-8.418;2022-10-31T01:19:05;4.47;;;2.50;;
50429;SDS011;36359;41.556;-8.418;2022-10-31T01:21:31;6.70;;;3.13;;
50429;SDS011;36359;41.556;-8.418;2022-10-31T01:23:58;6.93;;;3.67;;
50429;SDS011;36359;41.556;-8.418;2022-10-31T01:26:25;10.20;;;3.30;;
50429;SDS011;36359;41.556;-8.418;2022-10-31T01:31:24;8.05;;;2.88;;
50429;SDS011;36359;41.556;-8.418;2022-10-31T01:33:51;7.82;;;2.88;;
50429;SDS011;36359;41.556;-8.418;2022-10-31T01:36:19;5.07;;;2.75;;
50429;SDS011;36359;41.556;-8.418;2022-10-31T01:38:50;6.22;;;2.55;;
50429;SDS011;36359;41.556;-8.418;2022-10-31T01:41:17;6.88;;;2.75;;
50429;SDS011;36359;41.556;-8.418;2022-10-31T01:43:53;5.57;;;2.25;;
50429;SDS011;36359;41.556;-8.418;2022-10-31T01:46:22;6.15;;;2.70;;
50429;SDS011;36359;41.556;-8.418;2022-10-31T01:48:48;4.28;;;2.38;;
50429;SDS011;36359;41.556;-8.418;2022-10-31T01:51:17;3.72;;;2.40;;
50429;SDS011;36359;41.556;-8.418;2022-10-31T01:53:47;6.00;;;2.60;;
50429;SDS011;36359;41.556;-8.418;2022-10-31T01:56:15;4.30;;;1.90;;
50429;SDS011;36359;41.556;-8.418;2022-10-31T01:58:42;4.32;;;2.30;;
50429;SDS011;36359;41.556;-8.418;2022-10-31T02:01:10;5.07;;;2.50;;
50429;SDS011;36359;41.556;-8.418;2022-10-31T02:03:38;4.15;;;2.60;;
50429;SDS011;36359;41.556;-8.418;2022-10-31T02:06:06;7.07;;;2.72;;
50429;SDS011;36359;41.556;-8.418;2022-10-31T02:08:38;5.88;;;2.60;;
50429;SDS011;36359;41.556;-8.418;2022-10-31T02:11:05;9.45;;;2.60;;
50429;SDS011;36359;41.556;-8.418;2022-10-31T02:13:35;5.40;;;2.15;;
50429;SDS011;36359;41.556;-8.418;2022-10-31T02:16:05;4.82;;;2.28;;
50429;SDS011;36359;41.556;-8.418;2022-10-31T02:18:32;4.70;;;2.00;;
50429;SDS011;36359;41.556;-8.418;2022-10-31T02:21:17;7.22;;;2.38;;
50429;SDS011;36359;41.556;-8.418;2022-10-31T02:30:00;3.47;;;1.80;;
50429;SDS011;36359;41.556;-8.418;2022-10-31T02:42:57;5.03;;;2.28;;
50429;SDS011;36359;41.556;-8.418;2022-10-31T02:48:03;4.18;;;1.80;;
50429;SDS011;36359;41.556;-8.418;2022-10-31T02:50:35;3.53;;;1.90;;
50429;SDS011;36359;41.556;-8.418;2022-10-31T02:53:08;4.00;;;1.85;;
50429;SDS011;36359;41.556;-8.418;2022-10-31T02:58:06;6.07;;;1.83;;
50429;SDS011;36359;41.556;-8.418;2022-10-31T03:00:40;3.20;;;1.70;;
50429;SDS011;36359;41.556;-8.418;2022-10-31T03:11:23;5.68;;;2.95;;
50429;SDS011;36359;41.556;-8.418;2022-10-31T03:14:04;5.15;;;2.25;;
50429;SDS011;36359;41.556;-8.418;2022-10-31T03:16:41;3.42;;;1.17;;
50429;SDS011;36359;41.556;-8.418;2022-10-31T03:21:46;3.13;;;1.33;;
50429;SDS011;36359;41.556;-8.418;2022-10-31T03:24:13;3.13;;;1.10;;
50429;SDS011;36359;41.556;-8.418;2022-10-31T03:26:44;3.60;;;1.52;;
50429;SDS011;36359;41.556;-8.418;2022-10-31T03:29:15;4.43;;;1.42;;
50429;SDS011;36359;41.556;-8.418;2022-10-31T03:31:49;2.83;;;1.15;;
50429;SDS011;36359;41.556;-8.418;2022-10-31T03:34:21;3.40;;;0.98;;
50429;SDS011;36359;41.556;-8.418;2022-10-31T03:36:49;2.90;;;1.30;;
50429;SDS011;36359;41.556;-8.418;2022-10-31T03:39:21;2.45;;;0.93;;
50429;SDS011;36359;41.556;-8.418;2022-10-31T03:41:53;2.60;;;1.33;;
50429;SDS011;36359;41.556;-8.418;2022-10-31T03:44:24;2.97;;;1.50;;
50429;SDS011;36359;41.556;-8.418;2022-10-31T03:46:58;5.35;;;2.40;;
50429;SDS011;36359;41.556;-8.418;2022-10-31T03:49:24;4.25;;;1.95;;
50429;SDS011;36359;41.556;-8.418;2022-10-31T03:59:59;2.80;;;1.33;;
50429;SDS011;36359;41.556;-8.418;2022-10-31T04:02:32;3.20;;;1.45;;
50429;SDS011;36359;41.556;-8.418;2022-10-31T04:05:03;3.55;;;1.60;;
50429;SDS011;36359;41.556;-8.418;2022-10-31T04:07:33;3.10;;;1.25;;
50429;SDS011;36359;41.556;-8.418;2022-10-31T04:10:07;3.45;;;1.40;;
50429;SDS011;36359;41.556;-8.418;2022-10-31T04:12:35;4.07;;;1.40;;
50429;SDS011;36359;41.556;-8.418;2022-10-31T04:15:13;4.35;;;1.60;;
50429;SDS011;36359;41.556;-8.418;2022-10-31T04:17:40;2.78;;;1.30;;
50429;SDS011;36359;41.556;-8.418;2022-10-31T04:20:09;3.08;;;1.20;;
50429;SDS011;36359;41.556;-8.418;2022-10-31T04:22:36;3.08;;;1.10;;
50429;SDS011;36359;41.556;-8.418;2022-10-31T04:25:01;3.17;;;1.10;;
50429;SDS011;36359;41.556;-8.418;2022-10-31T04:27:27;2.78;;;1.30;;
50429;SDS011;36359;41.556;-8.418;2022-10-31T04:29:53;2.75;;;1.17;;
50429;SDS011;36359;41.556;-8.418;2022-10-31T04:32:18;2.65;;;1.17;;
50429;SDS011;36359;41.556;-8.418;2022-10-31T04:34:44;3.50;;;1.17;;
50429;SDS011;36359;41.556;-8.418;2022-10-31T04:37:10;3.75;;;1.83;;
50429;SDS011;36359;41.556;-8.418;2022-10-31T04:39:36;4.10;;;1.30;;
50429;SDS011;36359;41.556;-8.418;2022-10-31T04:42:21;3.38;;;1.30;;
50429;SDS011;36359;41.556;-8.418;2022-10-31T04:44:47;1.77;;;1.20;;
50429;SDS011;36359;41.556;-8.418;2022-10-31T04:47:13;4.15;;;0.80;;
50429;SDS011;36359;41.556;-8.418;2022-10-31T04:49:39;1.92;;;0.90;;
50429;SDS011;36359;41.556;-8.418;2022-10-31T04:52:06;2.47;;;1.20;;
50429;SDS011;36359;41.556;-8.418;2022-10-31T04:54:33;1.73;;;1.10;;
50429;SDS011;36359;41.556;-8.418;2022-10-31T04:57:22;2.63;;;1.05;;
50429;SDS011;36359;41.556;-8.418;2022-10-31T04:59:48;2.88;;;0.90;;
50429;SDS011;36359;41.556;-8.418;2022-10-31T05:02:14;2.90;;;1.48;;
50429;SDS011;36359;41.556;-8.418;2022-10-31T05:04:45;1.33;;;0.77;;
50429;SDS011;36359;41.556;-8.418;2022-10-31T05:07:11;1.58;;;0.90;;
50429;SDS011;36359;41.556;-8.418;2022-10-31T05:09:37;3.70;;;1.25;;
50429;SDS011;36359;41.556;-8.418;2022-10-31T05:12:03;1.20;;;0.70;;
50429;SDS011;36359;41.556;-8.418;2022-10-31T05:15:07;1.60;;;0.73;;
50429;SDS011;36359;41.556;-8.418;2022-10-31T05:17:52;2.55;;;1.00;;
50429;SDS011;36359;41.556;-8.418;2022-10-31T05:20:37;3.08;;;0.90;;
50429;SDS011;36359;41.556;-8.418;2022-10-31T05:23:13;1.83;;;0.93;;
50429;SDS011;36359;41.556;-8.418;2022-10-31T05:25:40;1.33;;;0.95;;
50429;SDS011;36359;41.556;-8.418;2022-10-31T05:28:06;1.88;;;1.00;;
50429;SDS011;36359;41.556;-8.418;2022-10-31T05:30:34;1.52;;;1.08;;
50429;SDS011;36359;41.556;-8.418;2022-10-31T05:33:00;1.40;;;0.80;;
50429;SDS011;36359;41.556;-8.418;2022-10-31T05:35:45;2.03;;;1.08;;
50429;SDS011;36359;41.556;-8.418;2022-10-31T05:38:25;2.33;;;1.10;;
50429;SDS011;36359;41.556;-8.418;2022-10-31T05:40:54;1.95;;;0.90;;
50429;SDS011;36359;41.556;-8.418;2022-10-31T05:43:23;1.48;;;0.70;;
50429;SDS011;36359;41.556;-8.418;2022-10-31T05:45:55;2.33;;;1.05;;
50429;SDS011;36359;41.556;-8.418;2022-10-31T05:48:56;3.47;;;1.23;;
50429;SDS011;36359;41.556;-8.418;2022-10-31T05:51:40;2.95;;;0.93;;
50429;SDS011;36359;41.556;-8.418;2022-10-31T05:54:07;2.30;;;0.98;;
50429;SDS011;36359;41.556;-8.418;2022-10-31T05:56:33;2.17;;;0.73;;
50429;SDS011;36359;41.556;-8.418;2022-10-31T05:58:59;1.75;;;0.70;;
50429;SDS011;36359;41.556;-8.418;2022-10-31T06:01:26;2.83;;;0.93;;
50429;SDS011;36359;41.556;-8.418;2022-10-31T06:03:52;1.92;;;0.68;;
50429;SDS011;36359;41.556;-8.418;2022-10-31T06:06:21;2.28;;;0.60;;
50429;SDS011;36359;41.556;-8.418;2022-10-31T06:08:46;5.65;;;1.00;;
50429;SDS011;36359;41.556;-8.418;2022-10-31T06:11:16;2.80;;;0.90;;
50429;SDS011;36359;41.556;-8.418;2022-10-31T06:14:00;1.40;;;0.70;;
50429;SDS011;36359;41.556;-8.418;2022-10-31T06:17:04;3.47;;;1.00;;
50429;SDS011;36359;41.556;-8.418;2022-10-31T06:19:50;2.35;;;0.90;;
50429;SDS011;36359;41.556;-8.418;2022-10-31T06:22:19;2.20;;;0.82;;
50429;SDS011;36359;41.556;-8.418;2022-10-31T06:24:45;3.60;;;0.80;;
50429;SDS011;36359;41.556;-8.418;2022-10-31T06:27:30;1.70;;;0.68;;
50429;SDS011;36359;41.556;-8.418;2022-10-31T06:30:01;1.38;;;0.68;;
50429;SDS011;36359;41.556;-8.418;2022-10-31T06:32:31;2.10;;;0.90;;
50429;SDS011;36359;41.556;-8.418;2022-10-31T06:34:57;2.80;;;1.15;;
50429;SDS011;36359;41.556;-8.418;2022-10-31T06:37:23;2.05;;;0.60;;
50429;SDS011;36359;41.556;-8.418;2022-10-31T06:39:51;1.90;;;0.68;;
50429;SDS011;36359;41.556;-8.418;2022-10-31T06:42:17;3.92;;;0.90;;
50429;SDS011;36359;41.556;-8.418;2022-10-31T06:44:43;1.35;;;0.63;;
50429;SDS011;36359;41.556;-8.418;2022-10-31T06:47:27;3.95;;;0.73;;
50429;SDS011;36359;41.556;-8.418;2022-10-31T06:50:05;2.85;;;0.70;;
50429;SDS011;36359;41.556;-8.418;2022-10-31T06:52:31;2.42;;;0.60;;
50429;SDS011;36359;41.556;-8.418;2022-10-31T06:54:57;3.80;;;0.80;;
50429;SDS011;36359;41.556;-8.418;2022-10-31T06:57:22;2.67;;;0.80;;
50429;SDS011;36359;41.556;-8.418;2022-10-31T06:59:48;1.83;;;0.80;;
50429;SDS011;36359;41.556;-8.418;2022-10-31T07:02:17;1.17;;;0.70;;
50429;SDS011;36359;41.556;-8.418;2022-10-31T07:04:43;2.25;;;0.70;;
50429;SDS011;36359;41.556;-8.418;2022-10-31T07:07:12;2.78;;;0.60;;
50429;SDS011;36359;41.556;-8.418;2022-10-31T07:09:38;3.05;;;0.88;;
50429;SDS011;36359;41.556;-8.418;2022-10-31T07:12:05;2.17;;;0.80;;
50429;SDS011;36359;41.556;-8.418;2022-10-31T07:14:35;1.97;;;0.77;;
50429;SDS011;36359;41.556;-8.418;2022-10-31T07:17:01;1.95;;;0.80;;
50429;SDS011;36359;41.556;-8.418;2022-10-31T07:19:39;2.80;;;0.50;;
50429;SDS011;36359;41.556;-8.418;2022-10-31T07:22:05;1.30;;;0.73;;
50429;SDS011;36359;41.556;-8.418;2022-10-31T07:24:32;2.55;;;0.88;;
50429;SDS011;36359;41.556;-8.418;2022-10-31T07:27:17;3.28;;;1.42;;
50429;SDS011;36359;41.556;-8.418;2022-10-31T07:29:44;2.22;;;1.10;;
50429;SDS011;36359;41.556;-8.418;2022-10-31T07:32:10;5.05;;;2.60;;
50429;SDS011;36359;41.556;-8.418;2022-10-31T07:34:42;2.15;;;1.10;;
50429;SDS011;36359;41.556;-8.418;2022-10-31T07:37:15;1.67;;;0.63;;
50429;SDS011;36359;41.556;-8.418;2022-10-31T07:39:41;2.08;;;0.68;;
50429;SDS011;36359;41.556;-8.418;2022-10-31T07:42:07;2.28;;;0.60;;
50429;SDS011;36359;41.556;-8.418;2022-10-31T07:44:34;1.98;;;0.80;;
50429;SDS011;36359;41.556;-8.418;2022-10-31T07:47:19;1.10;;;0.70;;
50429;SDS011;36359;41.556;-8.418;2022-10-31T07:50:03;4.28;;;1.15;;
50429;SDS011;36359;41.556;-8.418;2022-10-31T07:53:02;2.38;;;0.70;;
50429;SDS011;36359;41.556;-8.418;2022-10-31T07:55:52;1.95;;;0.90;;
50429;SDS011;36359;41.556;-8.418;2022-10-31T07:58:18;3.30;;;0.93;;
50429;SDS011;36359;41.556;-8.418;2022-10-31T08:00:45;3.50;;;1.10;;
50429;SDS011;36359;41.556;-8.418;2022-10-31T08:03:16;3.92;;;1.15;;
50429;SDS011;36359;41.556;-8.418;2022-10-31T08:05:56;2.55;;;0.70;;
50429;SDS011;36359;41.556;-8.418;2022-10-31T08:08:40;3.97;;;1.00;;
50429;SDS011;36359;41.556;-8.418;2022-10-31T08:11:07;1.80;;;0.75;;
50429;SDS011;36359;41.556;-8.418;2022-10-31T08:13:33;2.72;;;0.85;;
50429;SDS011;36359;41.556;-8.418;2022-10-31T08:16:03;3.95;;;1.10;;
50429;SDS011;36359;41.556;-8.418;2022-10-31T08:18:36;1.77;;;0.73;;
50429;SDS011;36359;41.556;-8.418;2022-10-31T08:21:05;1.67;;;0.50;;
50429;SDS011;36359;41.556;-8.418;2022-10-31T08:23:35;2.42;;;0.73;;
50429;SDS011;36359;41.556;-8.418;2022-10-31T08:26:28;7.20;;;1.20;;
50429;SDS011;36359;41.556;-8.418;2022-10-31T08:28:55;4.93;;;1.60;;
50429;SDS011;36359;41.556;-8.418;2022-10-31T08:31:33;6.57;;;1.17;;
50429;SDS011;36359;41.556;-8.418;2022-10-31T08:34:17;7.00;;;1.40;;
50429;SDS011;36359;41.556;-8.418;2022-10-31T08:37:02;4.07;;;1.00;;
50429;SDS011;36359;41.556;-8.418;2022-10-31T08:39:39;4.13;;;1.00;;
50429;SDS011;36359;41.556;-8.418;2022-10-31T08:42:14;5.97;;;1.13;;
50429;SDS011;36359;41.556;-8.418;2022-10-31T08:44:43;5.55;;;0.90;;
50429;SDS011;36359;41.556;-8.418;2022-10-31T08:47:09;10.20;;;1.20;;
50429;SDS011;36359;41.556;-8.418;2022-10-31T08:49:36;4.90;;;0.93;;
50429;SDS011;36359;41.556;-8.418;2022-10-31T08:52:01;3.58;;;1.30;;
50429;SDS011;36359;41.556;-8.418;2022-10-31T08:54:32;4.47;;;1.55;;
50429;SDS011;36359;41.556;-8.418;2022-10-31T08:57:16;4.88;;;1.00;;
50429;SDS011;36359;41.556;-8.418;2022-10-31T08:59:44;6.35;;;2.15;;
50429;SDS011;36359;41.556;-8.418;2022-10-31T09:02:13;3.08;;;0.90;;
50429;SDS011;36359;41.556;-8.418;2022-10-31T09:04:39;4.07;;;1.23;;
50429;SDS011;36359;41.556;-8.418;2022-10-31T09:07:05;3.95;;;1.08;;
50429;SDS011;36359;41.556;-8.418;2022-10-31T09:09:30;3.90;;;1.10;;
50429;SDS011;36359;41.556;-8.418;2022-10-31T09:11:56;4.25;;;1.10;;
50429;SDS011;36359;41.556;-8.418;2022-10-31T09:14:22;5.93;;;1.52;;
50429;SDS011;36359;41.556;-8.418;2022-10-31T09:17:14;3.47;;;1.20;;
50429;SDS011;36359;41.556;-8.418;2022-10-31T09:20:02;5.10;;;1.60;;
50429;SDS011;36359;41.556;-8.418;2022-10-31T09:22:33;4.97;;;1.48;;
50429;SDS011;36359;41.556;-8.418;2022-10-31T09:24:59;8.95;;;1.85;;
50429;SDS011;36359;41.556;-8.418;2022-10-31T09:27:24;8.77;;;1.90;;
50429;SDS011;36359;41.556;-8.418;2022-10-31T09:29:52;3.80;;;1.38;;
50429;SDS011;36359;41.556;-8.418;2022-10-31T09:32:19;4.15;;;1.30;;
50429;SDS011;36359;41.556;-8.418;2022-10-31T09:34:45;37.58;;;20.55;;
50429;SDS011;36359;41.556;-8.418;2022-10-31T09:37:17;18.05;;;9.48;;
50429;SDS011;36359;41.556;-8.418;2022-10-31T09:39:43;5.72;;;2.33;;
50429;SDS011;36359;41.556;-8.418;2022-10-31T09:47:44;5.35;;;2.20;;
50429;SDS011;36359;41.556;-8.418;2022-10-31T09:50:31;6.30;;;2.50;;
50429;SDS011;36359;41.556;-8.418;2022-10-31T09:56:34;8.40;;;1.90;;
50429;SDS011;36359;41.556;-8.418;2022-10-31T09:59:02;6.90;;;1.55;;
50429;SDS011;36359;41.556;-8.418;2022-10-31T10:01:38;5.38;;;1.83;;
50429;SDS011;36359;41.556;-8.418;2022-10-31T10:19:50;9.77;;;2.70;;
50429;SDS011;36359;41.556;-8.418;2022-10-31T10:25:19;10.98;;;2.80;;
50429;SDS011;36359;41.556;-8.418;2022-10-31T10:30:28;11.43;;;3.75;;
50429;SDS011;36359;41.556;-8.418;2022-10-31T10:33:19;10.95;;;3.50;;
50429;SDS011;36359;41.556;-8.418;2022-10-31T10:36:02;15.05;;;4.57;;
50429;SDS011;36359;41.556;-8.418;2022-10-31T10:41:20;12.30;;;2.92;;
50429;SDS011;36359;41.556;-8.418;2022-10-31T10:43:50;10.15;;;2.85;;
50429;SDS011;36359;41.556;-8.418;2022-10-31T10:49:17;7.85;;;2.78;;
50429;SDS011;36359;41.556;-8.418;2022-10-31T10:52:05;10.30;;;3.28;;
50429;SDS011;36359;41.556;-8.418;2022-10-31T11:00:22;14.32;;;3.40;;
50429;SDS011;36359;41.556;-8.418;2022-10-31T11:02:50;11.15;;;3.78;;
50429;SDS011;36359;41.556;-8.418;2022-10-31T11:05:22;10.20;;;3.08;;
50429;SDS011;36359;41.556;-8.418;2022-10-31T11:07:49;13.50;;;3.22;;
50429;SDS011;36359;41.556;-8.418;2022-10-31T11:10:17;9.05;;;2.90;;
50429;SDS011;36359;41.556;-8.418;2022-10-31T11:12:45;10.52;;;2.70;;
50429;SDS011;36359;41.556;-8.418;2022-10-31T11:15:24;11.47;;;3.60;;
50429;SDS011;36359;41.556;-8.418;2022-10-31T11:17:53;13.00;;;3.20;;
50429;SDS011;36359;41.556;-8.418;2022-10-31T11:22:59;13.32;;;2.63;;
50429;SDS011;36359;41.556;-8.418;2022-10-31T11:25:27;12.25;;;2.55;;
50429;SDS011;36359;41.556;-8.418;2022-10-31T11:28:02;9.65;;;2.20;;
50429;SDS011;36359;41.556;-8.418;2022-10-31T11:30:30;9.48;;;2.90;;
50429;SDS011;36359;41.556;-8.418;2022-10-31T11:35:26;8.10;;;2.15;;
50429;SDS011;36359;41.556;-8.418;2022-10-31T11:38:04;4.45;;;1.75;;
50429;SDS011;36359;41.556;-8.418;2022-10-31T11:40:30;7.93;;;2.08;;
50429;SDS011;36359;41.556;-8.418;2022-10-31T11:42:57;7.15;;;2.20;;
50429;SDS011;36359;41.556;-8.418;2022-10-31T11:45:33;7.38;;;1.77;;
50429;SDS011;36359;41.556;-8.418;2022-10-31T11:48:02;7.07;;;1.70;;
50429;SDS011;36359;41.556;-8.418;2022-10-31T11:50:40;8.80;;;2.60;;
50429;SDS011;36359;41.556;-8.418;2022-10-31T11:53:12;8.40;;;1.83;;
50429;SDS011;36359;41.556;-8.418;2022-10-31T11:55:59;8.57;;;2.40;;
50429;SDS011;36359;41.556;-8.418;2022-10-31T11:58:28;13.10;;;2.33;;
50429;SDS011;36359;41.556;-8.418;2022-10-31T12:00:55;14.52;;;2.10;;
50429;SDS011;36359;41.556;-8.418;2022-10-31T12:08:43;11.23;;;2.10;;
50429;SDS011;36359;41.556;-8.418;2022-10-31T12:11:33;12.02;;;1.95;;
50429;SDS011;36359;41.556;-8.418;2022-10-31T12:19:46;14.27;;;2.70;;
50429;SDS011;36359;41.556;-8.418;2022-10-31T12:32:57;11.95;;;2.40;;
50429;SDS011;36359;41.556;-8.418;2022-10-31T12:45:55;17.15;;;3.20;;
50429;SDS011;36359;41.556;-8.418;2022-10-31T12:56:09;18.65;;;3.08;;
50429;SDS011;36359;41.556;-8.418;2022-10-31T13:01:30;9.30;;;2.47;;
50429;SDS011;36359;41.556;-8.418;2022-10-31T13:06:49;14.57;;;2.42;;
50429;SDS011;36359;41.556;-8.418;2022-10-31T13:09:20;15.70;;;2.63;;
50429;SDS011;36359;41.556;-8.418;2022-10-31T13:12:01;16.30;;;2.88;;
50429;SDS011;36359;41.556;-8.418;2022-10-31T13:14:37;19.65;;;3.13;;
50429;SDS011;36359;41.556;-8.418;2022-10-31T13:17:20;14.88;;;2.50;;
50429;SDS011;36359;41.556;-8.418;2022-10-31T13:19:51;13.15;;;1.75;;
50429;SDS011;36359;41.556;-8.418;2022-10-31T13:22:22;16.52;;;3.25;;
50429;SDS011;36359;41.556;-8.418;2022-10-31T13:27:30;23.67;;;9.32;;
50429;SDS011;36359;41.556;-8.418;2022-10-31T13:30:20;16.38;;;3.22;;
50429;SDS011;36359;41.556;-8.418;2022-10-31T13:32:52;16.63;;;4.00;;
50429;SDS011;36359;41.556;-8.418;2022-10-31T13:35:33;8.02;;;2.03;;
50429;SDS011;36359;41.556;-8.418;2022-10-31T13:43:58;14.27;;;2.25;;
50429;SDS011;36359;41.556;-8.418;2022-10-31T13:46:57;10.85;;;2.70;;
50429;SDS011;36359;41.556;-8.418;2022-10-31T13:51:52;13.80;;;2.28;;
50429;SDS011;36359;41.556;-8.418;2022-10-31T13:54:23;15.38;;;2.38;;
50429;SDS011;36359;41.556;-8.418;2022-10-31T13:56:57;16.05;;;2.42;;
50429;SDS011;36359;41.556;-8.418;2022-10-31T13:59:23;14.50;;;1.85;;
50429;SDS011;36359;41.556;-8.418;2022-10-31T14:01:56;12.00;;;1.83;;
50429;SDS011;36359;41.556;-8.418;2022-10-31T14:07:14;11.63;;;2.95;;
50429;SDS011;36359;41.556;-8.418;2022-10-31T14:10:03;12.05;;;3.83;;
50429;SDS011;36359;41.556;-8.418;2022-10-31T14:12:42;11.80;;;3.10;;
50429;SDS011;36359;41.556;-8.418;2022-10-31T14:15:29;18.10;;;8.55;;
50429;SDS011;36359;41.556;-8.418;2022-10-31T14:17:57;15.65;;;2.58;;
50429;SDS011;36359;41.556;-8.418;2022-10-31T14:23:12;11.85;;;2.58;;
50429;SDS011;36359;41.556;-8.418;2022-10-31T14:30:53;11.63;;;2.00;;
50429;SDS011;36359;41.556;-8.418;2022-10-31T14:33:22;15.93;;;6.32;;
50429;SDS011;36359;41.556;-8.418;2022-10-31T14:36:06;45.43;;;25.93;;
50429;SDS011;36359;41.556;-8.418;2022-10-31T14:52:18;36.17;;;13.50;;
50429;SDS011;36359;41.556;-8.418;2022-10-31T14:54:47;35.08;;;14.43;;
50429;SDS011;36359;41.556;-8.418;2022-10-31T14:57:20;40.78;;;15.95;;
50429;SDS011;36359;41.556;-8.418;2022-10-31T14:59:52;44.88;;;16.98;;
50429;SDS011;36359;41.556;-8.418;2022-10-31T15:02:33;37.25;;;12.68;;
50429;SDS011;36359;41.556;-8.418;2022-10-31T15:05:07;28.10;;;7.45;;
50429;SDS011;36359;41.556;-8.418;2022-10-31T15:07:35;28.23;;;8.18;;
50429;SDS011;36359;41.556;-8.418;2022-10-31T15:10:06;33.42;;;11.63;;
50429;SDS011;36359;41.556;-8.418;2022-10-31T15:12:44;15.15;;;3.38;;
50429;SDS011;36359;41.556;-8.418;2022-10-31T15:15:11;20.58;;;4.07;;
50429;SDS011;36359;41.556;-8.418;2022-10-31T15:17:48;15.77;;;5.70;;
50429;SDS011;36359;41.556;-8.418;2022-10-31T15:20:23;43.70;;;15.18;;
50429;SDS011;36359;41.556;-8.418;2022-10-31T15:22:51;28.17;;;7.60;;
50429;SDS011;36359;41.556;-8.418;2022-10-31T15:25:20;16.02;;;4.82;;
50429;SDS011;36359;41.556;-8.418;2022-10-31T15:27:47;24.20;;;8.15;;
50429;SDS011;36359;41.556;-8.418;2022-10-31T15:30:21;49.85;;;16.65;;
50429;SDS011;36359;41.556;-8.418;2022-10-31T15:32:48;91.07;;;30.63;;
50429;SDS011;36359;41.556;-8.418;2022-10-31T15:35:22;82.80;;;33.80;;
50429;SDS011;36359;41.556;-8.418;2022-10-31T15:37:51;28.88;;;11.20;;
50429;SDS011;36359;41.556;-8.418;2022-10-31T15:40:18;20.90;;;8.25;;
50429;SDS011;36359;41.556;-8.418;2022-10-31T15:42:58;30.10;;;13.15;;
50429;SDS011;36359;41.556;-8.418;2022-10-31T15:45:27;11.60;;;2.20;;
50429;SDS011;36359;41.556;-8.418;2022-10-31T15:48:02;24.10;;;7.38;;
50429;SDS011;36359;41.556;-8.418;2022-10-31T15:50:39;19.85;;;6.53;;
50429;SDS011;36359;41.556;-8.418;2022-10-31T15:53:35;40.90;;;16.55;;
50429;SDS011;36359;41.556;-8.418;2022-10-31T15:56:09;12.65;;;2.88;;
50429;SDS011;36359;41.556;-8.418;2022-10-31T15:58:44;18.10;;;5.90;;
50429;SDS011;36359;41.556;-8.418;2022-10-31T16:06:35;20.30;;;7.35;;
50429;SDS011;36359;41.556;-8.418;2022-10-31T16:09:02;11.90;;;2.60;;
50429;SDS011;36359;41.556;-8.418;2022-10-31T16:11:34;18.40;;;7.35;;
50429;SDS011;36359;41.556;-8.418;2022-10-31T16:16:33;13.05;;;3.08;;
50429;SDS011;36359;41.556;-8.418;2022-10-31T16:19:05;21.45;;;6.45;;
50429;SDS011;36359;41.556;-8.418;2022-10-31T16:21:42;20.90;;;6.72;;
50429;SDS011;36359;41.556;-8.418;2022-10-31T16:27:05;19.95;;;6.15;;
50429;SDS011;36359;41.556;-8.418;2022-10-31T16:29:42;10.35;;;2.38;;
50429;SDS011;36359;41.556;-8.418;2022-10-31T16:35:18;14.18;;;4.00;;
50429;SDS011;36359;41.556;-8.418;2022-10-31T16:37:50;13.00;;;2.67;;
50429;SDS011;36359;41.556;-8.418;2022-10-31T16:40:16;12.27;;;2.20;;
50429;SDS011;36359;41.556;-8.418;2022-10-31T16:42:43;16.38;;;3.22;;
50429;SDS011;36359;41.556;-8.418;2022-10-31T16:45:20;19.58;;;2.65;;
50429;SDS011;36359;41.556;-8.418;2022-10-31T16:47:48;18.65;;;3.00;;
50429;SDS011;36359;41.556;-8.418;2022-10-31T16:50:15;19.42;;;4.93;;
50429;SDS011;36359;41.556;-8.418;2022-10-31T16:52:48;21.27;;;3.75;;
50429;SDS011;36359;41.556;-8.418;2022-10-31T16:55:15;17.70;;;3.78;;
50429;SDS011;36359;41.556;-8.418;2022-10-31T16:57:48;15.00;;;3.08;;
50429;SDS011;36359;41.556;-8.418;2022-10-31T17:00:18;15.15;;;4.80;;
50429;SDS011;36359;41.556;-8.418;2022-10-31T17:02:46;15.50;;;3.90;;
50429;SDS011;36359;41.556;-8.418;2022-10-31T17:05:14;21.67;;;3.67;;
50429;SDS011;36359;41.556;-8.418;2022-10-31T17:07:41;16.30;;;3.95;;
50429;SDS011;36359;41.556;-8.418;2022-10-31T17:10:08;23.98;;;4.90;;
50429;SDS011;36359;41.556;-8.418;2022-10-31T17:12:35;20.15;;;4.72;;
50429;SDS011;36359;41.556;-8.418;2022-10-31T17:15:02;20.17;;;5.35;;
50429;SDS011;36359;41.556;-8.418;2022-10-31T17:17:28;19.45;;;4.82;;
50429;SDS011;36359;41.556;-8.418;2022-10-31T17:19:53;16.80;;;3.92;;
50429;SDS011;36359;41.556;-8.418;2022-10-31T17:22:19;19.33;;;4.63;;
50429;SDS011;36359;41.556;-8.418;2022-10-31T17:24:45;16.13;;;4.15;;
50429;SDS011;36359;41.556;-8.418;2022-10-31T17:27:10;16.73;;;4.00;;
50429;SDS011;36359;41.556;-8.418;2022-10-31T17:29:36;15.68;;;4.05;;
50429;SDS011;36359;41.556;-8.418;2022-10-31T17:32:02;18.92;;;4.05;;
50429;SDS011;36359;41.556;-8.418;2022-10-31T17:34:28;13.80;;;3.90;;
50429;SDS011;36359;41.556;-8.418;2022-10-31T17:36:54;17.00;;;3.70;;
50429;SDS011;36359;41.556;-8.418;2022-10-31T17:39:20;16.98;;;5.10;;
50429;SDS011;36359;41.556;-8.418;2022-10-31T17:41:49;12.55;;;3.78;;
50429;SDS011;36359;41.556;-8.418;2022-10-31T17:44:14;13.05;;;4.60;;
50429;SDS011;36359;41.556;-8.418;2022-10-31T17:46:40;13.77;;;4.43;;
50429;SDS011;36359;41.556;-8.418;2022-10-31T17:49:06;14.15;;;4.30;;
50429;SDS011;36359;41.556;-8.418;2022-10-31T17:51:33;14.48;;;3.88;;
50429;SDS011;36359;41.556;-8.418;2022-10-31T17:53:59;23.85;;;4.25;;
50429;SDS011;36359;41.556;-8.418;2022-10-31T17:56:25;16.58;;;4.10;;